Terminal Aerodrome Forecast
Issued by NWS

Home | Current Version | Previous Version | Text Only | Print | Product List | Glossary Off
Versions: 1 2 3 4 5 6 7 8 9 10 11 12 13 14 15 16 17 18 19 20 21

274
FTUS43 KMPX 132320
TAFAXN
TAF
KAXN 132320Z 1400/1424 03004KT P6SM FEW250
     FM140300 11004KT P6SM SKC
     FM141200 09008KT P6SM BKN200
     FM141600 10008KT P6SM VCSH SCT050 BKN090
     FM141800 08011KT P6SM -SHRA OVC050
     FM142100 04012KT P6SM -SHRA OVC025=

USA.gov is the U.S. government's official web portal to all federal, state and local government web resources and services.